createdAt,value
2018-11-04T00:00:17.271Z,0
2018-11-04T00:01:18.624Z,0
2018-11-04T00:02:19.987Z,0
2018-11-04T00:03:21.349Z,0
2018-11-04T00:04:22.698Z,0
2018-11-04T00:05:24.060Z,0
2018-11-04T00:06:25.449Z,0
2018-11-04T00:07:26.804Z,0
2018-11-04T00:08:28.162Z,0
2018-11-04T00:09:29.522Z,0
2018-11-04T00:10:31.629Z,0
2018-11-04T00:11:32.194Z,0
2018-11-04T00:12:33.549Z,0
2018-11-04T00:13:34.921Z,0
2018-11-04T00:14:36.277Z,0
2018-11-04T00:15:37.627Z,0
2018-11-04T00:16:38.983Z,0
2018-11-04T00:17:40.333Z,0
2018-11-04T00:18:41.699Z,0
2018-11-04T00:19:43.052Z,0
2018-11-04T00:20:44.423Z,0
2018-11-04T00:21:45.779Z,0
2018-11-04T00:22:47.133Z,0
2018-11-04T00:23:48.550Z,0
2018-11-04T00:24:49.808Z,0
2018-11-04T00:25:51.164Z,0
2018-11-04T00:26:52.565Z,0
2018-11-04T00:27:53.888Z,0
2018-11-04T00:28:55.249Z,0
2018-11-04T00:29:56.754Z,0
2018-11-04T00:30:58.010Z,0
2018-11-04T00:31:59.528Z,0
2018-11-04T00:33:00.884Z,0
2018-11-04T00:34:02.244Z,0
2018-11-04T00:35:03.608Z,0
2018-11-04T00:36:04.963Z,0
2018-11-04T00:37:06.327Z,0
2018-11-04T00:38:07.687Z,0
2018-11-04T00:39:09.048Z,0
2018-11-04T00:40:10.413Z,0
2018-11-04T00:41:11.764Z,0
2018-11-04T00:42:13.127Z,0
2018-11-04T00:43:14.494Z,0
2018-11-04T00:44:15.843Z,0
2018-11-04T00:45:17.292Z,0
2018-11-04T00:46:58.020Z,0
2018-11-04T00:47:59.373Z,0
2018-11-04T00:49:00.732Z,0
2018-11-04T00:50:02.089Z,0
2018-11-04T00:51:03.450Z,0
2018-11-04T00:52:04.809Z,0
2018-11-04T00:53:06.158Z,0
2018-11-04T00:54:07.527Z,0
2018-11-04T00:55:08.886Z,0
2018-11-04T00:56:10.240Z,0
2018-11-04T00:57:11.596Z,0
2018-11-04T00:58:12.950Z,0
2018-11-04T00:59:14.322Z,0
2018-11-04T01:00:15.688Z,0
2018-11-04T01:01:17.044Z,0
2018-11-04T01:02:18.408Z,0
2018-11-04T01:03:19.767Z,0
2018-11-04T01:04:21.123Z,0
2018-11-04T01:05:24.175Z,0
2018-11-04T01:06:25.533Z,0
2018-11-04T01:07:26.936Z,0
2018-11-04T01:08:28.244Z,0
2018-11-04T01:09:29.723Z,0
2018-11-04T01:10:31.095Z,0
2018-11-04T01:11:32.448Z,0
2018-11-04T01:12:33.811Z,0
2018-11-04T01:13:35.164Z,0
2018-11-04T01:14:36.534Z,0
2018-11-04T01:15:37.888Z,0
2018-11-04T01:16:39.247Z,0
2018-11-04T01:17:40.607Z,0
2018-11-04T01:18:41.977Z,0
2018-11-04T01:19:43.334Z,0
2018-11-04T01:20:44.681Z,0
2018-11-04T01:21:46.055Z,0
2018-11-04T01:22:47.415Z,0
2018-11-04T01:23:48.763Z,0
2018-11-04T01:24:50.124Z,0
2018-11-04T01:25:51.488Z,0
2018-11-04T01:26:52.844Z,0
2018-11-04T01:27:54.924Z,0
2018-11-04T01:28:56.283Z,0
2018-11-04T01:29:57.648Z,0
2018-11-04T01:30:58.999Z,0
2018-11-04T01:32:00.505Z,0
2018-11-04T01:33:03.174Z,0
2018-11-04T01:34:04.523Z,0
2018-11-04T01:35:05.875Z,0
2018-11-04T01:36:07.246Z,0
2018-11-04T01:37:08.600Z,0
2018-11-04T01:38:09.948Z,0
2018-11-04T01:39:11.314Z,0
2018-11-04T01:40:12.662Z,0
2018-11-04T01:41:14.016Z,0
2018-11-04T01:42:15.379Z,0
2018-11-04T01:43:16.732Z,0
2018-11-04T01:44:19.252Z,0
2018-11-04T01:45:20.608Z,0
2018-11-04T01:46:21.963Z,0
2018-11-04T01:47:23.323Z,0
2018-11-04T01:48:25.305Z,0
2018-11-04T01:49:26.660Z,0
2018-11-04T01:50:28.023Z,0
2018-11-04T01:51:29.386Z,0
2018-11-04T01:52:30.735Z,0
2018-11-04T01:53:32.101Z,0
2018-11-04T01:54:33.447Z,0
2018-11-04T01:55:34.805Z,0
2018-11-04T01:56:36.163Z,0
2018-11-04T01:57:37.520Z,0
2018-11-04T01:58:38.874Z,0
2018-11-04T01:59:40.242Z,0
2018-11-04T02:00:41.607Z,0
2018-11-04T02:01:42.962Z,0
2018-11-04T02:02:44.318Z,0
2018-11-04T02:03:45.677Z,0
2018-11-04T02:04:47.030Z,0
2018-11-04T02:05:48.396Z,0
2018-11-04T02:06:49.763Z,0
2018-11-04T02:07:51.115Z,0
2018-11-04T02:08:52.478Z,0
2018-11-04T02:09:53.834Z,0
2018-11-04T02:10:55.192Z,0
2018-11-04T02:11:56.545Z,0
2018-11-04T02:12:57.903Z,0
2018-11-04T02:13:59.265Z,0
2018-11-04T02:15:00.645Z,0
2018-11-04T02:16:02.009Z,0
2018-11-04T02:17:03.365Z,0
2018-11-04T02:18:04.717Z,0
2018-11-04T02:19:06.085Z,0
2018-11-04T02:20:07.448Z,0
2018-11-04T02:21:08.803Z,0
2018-11-04T02:22:10.158Z,0
2018-11-04T02:23:11.518Z,0
2018-11-04T02:24:12.870Z,0
2018-11-04T02:25:14.229Z,0
2018-11-04T02:26:15.590Z,0
2018-11-04T02:27:16.946Z,0
2018-11-04T02:28:18.301Z,0
2018-11-04T02:29:19.662Z,0
2018-11-04T02:30:21.021Z,0
2018-11-04T02:31:22.375Z,0
2018-11-04T02:32:23.728Z,0
2018-11-04T02:33:25.099Z,0
2018-11-04T02:34:26.465Z,0
2018-11-04T02:35:27.819Z,0
2018-11-04T02:36:29.174Z,0
2018-11-04T02:37:30.533Z,0
2018-11-04T02:38:31.891Z,0
2018-11-04T02:39:33.248Z,0
2018-11-04T02:40:34.605Z,0
2018-11-04T02:41:35.974Z,0
2018-11-04T02:42:37.328Z,0
2018-11-04T02:43:38.686Z,0
2018-11-04T02:44:40.071Z,0
2018-11-04T02:45:41.423Z,0
2018-11-04T02:46:42.820Z,0
2018-11-04T02:47:44.153Z,0
2018-11-04T02:48:45.504Z,0
2018-11-04T02:49:46.875Z,0
2018-11-04T02:50:48.238Z,0
2018-11-04T02:51:49.590Z,0
2018-11-04T02:52:50.951Z,0
2018-11-04T02:53:52.305Z,0
2018-11-04T02:54:53.669Z,0
2018-11-04T02:55:55.024Z,0
2018-11-04T02:56:56.371Z,0
2018-11-04T02:57:57.721Z,0
2018-11-04T02:58:59.085Z,0
2018-11-04T03:00:00.454Z,0
2018-11-04T03:01:01.814Z,0
2018-11-04T03:02:03.260Z,0
2018-11-04T03:03:04.489Z,0
2018-11-04T03:04:05.847Z,0
2018-11-04T03:05:07.194Z,0
2018-11-04T03:06:08.569Z,0
2018-11-04T03:07:09.929Z,0
2018-11-04T03:08:11.303Z,0
2018-11-04T03:09:12.650Z,0
2018-11-04T03:10:14.012Z,0
2018-11-04T03:11:15.373Z,0
2018-11-04T03:12:16.731Z,0
2018-11-04T03:13:18.080Z,0
2018-11-04T03:14:19.441Z,0
2018-11-04T03:15:20.789Z,0
2018-11-04T03:16:22.150Z,0
2018-11-04T03:17:23.508Z,0
2018-11-04T03:18:24.874Z,0
2018-11-04T03:19:26.220Z,0
2018-11-04T03:20:27.600Z,0
2018-11-04T03:21:28.947Z,0
2018-11-04T03:22:30.305Z,0
2018-11-04T03:23:31.656Z,0
2018-11-04T03:24:33.144Z,0
2018-11-04T03:25:34.379Z,0
2018-11-04T03:26:35.729Z,0
2018-11-04T03:27:37.077Z,0
2018-11-04T03:28:38.442Z,0
2018-11-04T03:29:39.806Z,0
2018-11-04T03:30:41.154Z,0
2018-11-04T03:31:42.519Z,0
2018-11-04T03:32:43.879Z,0
2018-11-04T03:33:45.236Z,0
2018-11-04T03:34:46.590Z,0
2018-11-04T03:35:47.961Z,0
2018-11-04T03:36:49.316Z,0
2018-11-04T03:37:50.685Z,0
2018-11-04T03:38:52.036Z,0
2018-11-04T03:39:53.392Z,0
2018-11-04T03:40:54.761Z,0
2018-11-04T03:41:56.113Z,0
2018-11-04T03:42:57.468Z,0
2018-11-04T03:43:58.830Z,0
2018-11-04T03:45:00.185Z,0
2018-11-04T03:46:01.555Z,0
2018-11-04T03:47:02.906Z,0
2018-11-04T03:48:04.255Z,0
2018-11-04T03:49:05.619Z,0
2018-11-04T03:50:06.974Z,0
2018-11-04T03:51:08.383Z,0
2018-11-04T03:52:09.701Z,0
2018-11-04T03:53:11.055Z,0
2018-11-04T03:54:12.405Z,0
2018-11-04T03:55:13.763Z,0
2018-11-04T03:56:15.121Z,0
2018-11-04T03:57:16.474Z,0
2018-11-04T03:58:17.825Z,0
2018-11-04T03:59:19.196Z,0
2018-11-04T04:00:20.551Z,0
2018-11-04T04:01:21.909Z,0
2018-11-04T04:02:23.264Z,0
2018-11-04T04:03:24.620Z,0
2018-11-04T04:04:25.985Z,0
2018-11-04T04:05:27.345Z,0
2018-11-04T04:06:28.714Z,0
2018-11-04T04:07:30.060Z,0
2018-11-04T04:08:31.414Z,0
2018-11-04T04:09:32.774Z,0
2018-11-04T04:10:34.126Z,0
2018-11-04T04:11:35.489Z,0
2018-11-04T04:12:37.647Z,0
2018-11-04T04:13:38.136Z,0
2018-11-04T04:14:39.501Z,0
2018-11-04T04:15:40.858Z,0
2018-11-04T04:16:42.214Z,0
2018-11-04T04:17:43.570Z,0
2018-11-04T04:18:44.934Z,0
2018-11-04T04:19:46.300Z,0
2018-11-04T04:20:47.656Z,0
2018-11-04T04:21:49.031Z,0
2018-11-04T04:22:50.393Z,0
2018-11-04T04:23:51.771Z,0
2018-11-04T04:24:53.119Z,0
2018-11-04T04:25:54.480Z,0
2018-11-04T04:26:55.844Z,0
2018-11-04T04:27:57.209Z,0
2018-11-04T04:28:58.569Z,0
2018-11-04T04:29:59.925Z,0
2018-11-04T04:31:01.271Z,0
2018-11-04T04:32:02.629Z,0
2018-11-04T04:33:03.985Z,0
2018-11-04T04:34:05.339Z,0
2018-11-04T04:35:06.693Z,0
2018-11-04T04:36:08.056Z,0
2018-11-04T04:37:09.453Z,0
2018-11-04T04:38:10.766Z,0
2018-11-04T04:39:12.124Z,0
2018-11-04T04:40:13.480Z,0
2018-11-04T04:41:14.850Z,0
2018-11-04T04:42:16.199Z,0
2018-11-04T04:43:17.570Z,0
2018-11-04T04:44:18.946Z,0
2018-11-04T04:45:20.315Z,0
2018-11-04T04:46:21.682Z,0
2018-11-04T04:47:23.036Z,0
2018-11-04T04:48:24.394Z,0
2018-11-04T04:49:25.757Z,0
2018-11-04T04:50:27.110Z,0
2018-11-04T04:51:28.465Z,0
2018-11-04T04:52:29.824Z,0
2018-11-04T04:53:31.171Z,0
2018-11-04T04:54:32.527Z,0
2018-11-04T04:55:33.880Z,0
2018-11-04T04:56:35.246Z,0
2018-11-04T04:57:36.598Z,0
2018-11-04T04:58:37.966Z,0
2018-11-04T04:59:39.330Z,0
2018-11-04T05:00:40.696Z,0
2018-11-04T05:01:42.054Z,0
2018-11-04T05:02:43.420Z,0
2018-11-04T05:03:44.781Z,0
2018-11-04T05:04:46.138Z,0
2018-11-04T05:05:47.505Z,0
2018-11-04T05:06:48.850Z,0
2018-11-04T05:07:50.209Z,0
2018-11-04T05:08:51.565Z,0
2018-11-04T05:09:52.924Z,0
2018-11-04T05:10:54.276Z,0
2018-11-04T05:11:55.639Z,0
2018-11-04T05:12:56.999Z,0
2018-11-04T05:13:58.350Z,0
2018-11-04T05:14:59.720Z,0
2018-11-04T05:16:01.071Z,0
2018-11-04T05:17:02.436Z,0
2018-11-04T05:18:03.796Z,0
2018-11-04T05:19:05.160Z,0
2018-11-04T05:20:06.511Z,0
2018-11-04T05:21:07.859Z,0
2018-11-04T05:22:09.221Z,0
2018-11-04T05:23:10.586Z,0
2018-11-04T05:24:11.940Z,0
2018-11-04T05:25:13.296Z,0
2018-11-04T05:26:14.656Z,0
2018-11-04T05:27:16.002Z,0
2018-11-04T05:28:17.372Z,0
2018-11-04T05:29:18.736Z,0
2018-11-04T05:30:20.101Z,0
2018-11-04T05:31:21.466Z,0
2018-11-04T05:32:22.820Z,0
2018-11-04T05:33:24.172Z,0
2018-11-04T05:34:25.536Z,0
2018-11-04T05:35:26.891Z,0
2018-11-04T05:36:28.254Z,0
2018-11-04T05:37:29.606Z,0
2018-11-04T05:38:30.977Z,0
2018-11-04T05:39:32.325Z,0
2018-11-04T05:40:33.691Z,0
2018-11-04T05:41:35.037Z,0
2018-11-04T05:42:36.396Z,0
2018-11-04T05:43:38.532Z,0
2018-11-04T05:44:39.881Z,0
2018-11-04T05:45:41.249Z,0
2018-11-04T05:46:42.612Z,0
2018-11-04T05:47:43.966Z,0
2018-11-04T05:48:45.320Z,0
2018-11-04T05:49:46.679Z,0
2018-11-04T05:50:48.041Z,0
2018-11-04T05:51:49.391Z,0
2018-11-04T05:52:50.751Z,4
2018-11-04T05:53:52.119Z,4
2018-11-04T05:54:53.479Z,0
2018-11-04T05:55:54.836Z,4
2018-11-04T05:56:56.191Z,4
2018-11-04T05:57:57.557Z,8
2018-11-04T05:58:58.931Z,4
2018-11-04T06:00:00.296Z,8
2018-11-04T06:01:01.666Z,8
2018-11-04T06:02:03.016Z,8
2018-11-04T06:03:04.373Z,16
2018-11-04T06:04:05.723Z,16
2018-11-04T06:05:07.111Z,20
2018-11-04T06:06:08.482Z,20
2018-11-04T06:07:09.845Z,24
2018-11-04T06:08:11.211Z,28
2018-11-04T06:09:12.604Z,32
2018-11-04T06:10:13.977Z,36
2018-11-04T06:11:15.335Z,44
2018-11-04T06:12:16.700Z,52
2018-11-04T06:13:18.049Z,60
2018-11-04T06:14:19.411Z,64
2018-11-04T06:15:20.770Z,68
2018-11-04T06:16:22.138Z,76
2018-11-04T06:17:23.498Z,84
2018-11-04T06:18:24.856Z,96
2018-11-04T06:19:26.271Z,104
2018-11-04T06:20:27.532Z,112
2018-11-04T06:21:28.901Z,124
2018-11-04T06:22:30.278Z,140
2018-11-04T06:23:31.649Z,160
2018-11-04T06:24:33.005Z,176
2018-11-04T06:25:34.373Z,196
2018-11-04T06:26:35.747Z,220
2018-11-04T06:27:37.118Z,248
2018-11-04T06:28:38.521Z,268
2018-11-04T06:29:39.893Z,288
2018-11-04T06:30:41.267Z,300
2018-11-04T06:31:42.680Z,316
2018-11-04T06:32:44.032Z,336
2018-11-04T06:33:45.411Z,356
2018-11-04T06:34:46.922Z,372
2018-11-04T06:35:48.171Z,392
2018-11-04T06:36:49.541Z,400
2018-11-04T06:37:50.918Z,400
2018-11-04T06:38:52.303Z,416
2018-11-04T06:39:53.657Z,456
2018-11-04T06:40:55.084Z,508
2018-11-04T06:41:56.346Z,532
2018-11-04T06:42:57.715Z,540
2018-11-04T06:43:59.093Z,556
2018-11-04T06:45:00.438Z,588
2018-11-04T06:46:01.807Z,640
2018-11-04T06:47:42.761Z,740
2018-11-04T06:48:44.028Z,796
2018-11-04T06:49:45.398Z,868
2018-11-04T06:50:46.754Z,912
2018-11-04T06:51:48.122Z,900
2018-11-04T06:52:49.483Z,876
2018-11-04T06:53:50.841Z,880
2018-11-04T06:54:52.216Z,916
2018-11-04T06:55:53.572Z,952
2018-11-04T06:56:54.941Z,960
2018-11-04T06:57:56.291Z,952
2018-11-04T06:58:57.672Z,932
2018-11-04T06:59:59.082Z,916
2018-11-04T07:01:00.346Z,932
2018-11-04T07:02:01.712Z,980
2018-11-04T07:03:03.071Z,1056
2018-11-04T07:04:04.432Z,1100
2018-11-04T07:05:05.787Z,1116
2018-11-04T07:06:07.164Z,1164
2018-11-04T07:07:08.526Z,1260
2018-11-04T07:08:10.731Z,1360
2018-11-04T07:09:11.269Z,1392
2018-11-04T07:10:12.513Z,1368
2018-11-04T07:11:13.877Z,1368
2018-11-04T07:12:15.237Z,1392
2018-11-04T07:13:16.602Z,1404
2018-11-04T07:14:17.965Z,1372
2018-11-04T07:15:19.324Z,1380
2018-11-04T07:16:20.684Z,1456
2018-11-04T07:17:22.037Z,1544
2018-11-04T07:18:23.419Z,1612
2018-11-04T07:19:24.785Z,1648
2018-11-04T07:20:26.146Z,1628
2018-11-04T07:21:27.516Z,1600
2018-11-04T07:22:28.877Z,1604
2018-11-04T07:23:30.237Z,1648
2018-11-04T07:24:31.602Z,1716
2018-11-04T07:25:33.012Z,1756
2018-11-04T07:26:34.328Z,1780
2018-11-04T07:27:35.688Z,1808
2018-11-04T07:28:37.058Z,1844
2018-11-04T07:29:38.424Z,1888
2018-11-04T07:30:39.789Z,1936
2018-11-04T07:31:42.032Z,1988
2018-11-04T07:32:43.392Z,2036
2018-11-04T07:33:44.771Z,2156
2018-11-04T07:34:46.128Z,2276
2018-11-04T07:35:47.493Z,2292
2018-11-04T07:36:48.853Z,2264
2018-11-04T07:37:50.228Z,2324
2018-11-04T07:38:51.589Z,2460
2018-11-04T07:39:52.952Z,2488
2018-11-04T07:40:54.316Z,2360
2018-11-04T07:41:55.686Z,2232
2018-11-04T07:42:57.038Z,2216
2018-11-04T07:43:58.402Z,2316
2018-11-04T07:44:59.767Z,2476
2018-11-04T07:46:01.147Z,2632
2018-11-04T07:47:02.508Z,2832
2018-11-04T07:48:03.871Z,2928
2018-11-04T07:49:05.243Z,2792
2018-11-04T07:50:06.599Z,2736
2018-11-04T07:51:07.979Z,2932
2018-11-04T07:52:09.357Z,3176
2018-11-04T07:53:10.722Z,3240
2018-11-04T07:54:12.092Z,3096
2018-11-04T07:55:13.444Z,2928
2018-11-04T07:56:14.811Z,2892
2018-11-04T07:57:16.181Z,3004
2018-11-04T07:58:17.544Z,3264
2018-11-04T07:59:18.934Z,3364
2018-11-04T08:00:20.288Z,3212
2018-11-04T08:01:21.659Z,2988
2018-11-04T08:02:23.023Z,2944
2018-11-04T08:03:24.446Z,2992
2018-11-04T08:04:25.745Z,3000
2018-11-04T08:05:27.118Z,2904
2018-11-04T08:06:28.483Z,2728
2018-11-04T08:07:29.843Z,2708
2018-11-04T08:08:31.219Z,2768
2018-11-04T08:09:32.574Z,2868
2018-11-04T08:10:33.939Z,2916
2018-11-04T08:11:35.313Z,2964
2018-11-04T08:12:36.679Z,2916
2018-11-04T08:13:38.137Z,3076
2018-11-04T08:14:56.847Z,3364
2018-11-04T08:15:58.168Z,3608
2018-11-04T08:16:59.669Z,3548
2018-11-04T08:18:01.031Z,3336
2018-11-04T08:19:02.429Z,3276
2018-11-04T08:20:03.794Z,3420
2018-11-04T08:21:05.201Z,3668
2018-11-04T08:22:06.518Z,3740
2018-11-04T08:23:07.904Z,3620
2018-11-04T08:24:09.257Z,3564
2018-11-04T08:25:10.627Z,3572
2018-11-04T08:26:11.996Z,3652
2018-11-04T08:27:13.364Z,3784
2018-11-04T08:28:14.730Z,3924
2018-11-04T08:29:16.087Z,3820
2018-11-04T08:30:17.455Z,3792
2018-11-04T08:31:18.817Z,3928
2018-11-04T08:32:20.179Z,4048
2018-11-04T08:33:21.548Z,4092
2018-11-04T08:34:22.903Z,4100
2018-11-04T08:35:24.273Z,4188
2018-11-04T08:36:25.642Z,4284
2018-11-04T08:37:26.998Z,4340
2018-11-04T08:38:28.356Z,4392
2018-11-04T08:39:29.727Z,4572
2018-11-04T08:40:31.102Z,4700
2018-11-04T08:41:32.412Z,4652
2018-11-04T08:42:33.775Z,4632
2018-11-04T08:43:35.128Z,4648
2018-11-04T08:44:36.498Z,4580
2018-11-04T08:45:37.866Z,4660
2018-11-04T08:46:39.265Z,4636
2018-11-04T08:47:40.579Z,4680
2018-11-04T08:48:41.941Z,4684
2018-11-04T08:49:43.315Z,4432
2018-11-04T08:50:44.690Z,4176
2018-11-04T08:51:46.053Z,4100
2018-11-04T08:52:47.416Z,4232
2018-11-04T08:53:48.779Z,4384
2018-11-04T08:54:50.153Z,4656
2018-11-04T08:55:51.514Z,4768
2018-11-04T08:56:52.884Z,4796
2018-11-04T08:57:54.265Z,4920
2018-11-04T08:58:55.633Z,5144
2018-11-04T08:59:57.042Z,5344
2018-11-04T09:00:58.386Z,5416
2018-11-04T09:01:59.909Z,5404
2018-11-04T09:03:01.269Z,5176
2018-11-04T09:04:02.651Z,4968
2018-11-04T09:05:04.014Z,4824
2018-11-04T09:06:05.374Z,4872
2018-11-04T09:07:06.740Z,5336
2018-11-04T09:08:08.109Z,5732
2018-11-04T09:09:09.464Z,5980
2018-11-04T09:10:10.830Z,6188
2018-11-04T09:11:12.205Z,6232
2018-11-04T09:12:13.557Z,6024
2018-11-04T09:13:14.922Z,5816
2018-11-04T09:14:16.385Z,5756
2018-11-04T09:15:17.634Z,5712
2018-11-04T09:16:18.994Z,5832
2018-11-04T09:17:20.367Z,6004
2018-11-04T09:18:21.729Z,5904
2018-11-04T09:19:23.089Z,5828
2018-11-04T09:20:24.453Z,6184
2018-11-04T09:21:25.824Z,6708
2018-11-04T09:22:27.224Z,7296
2018-11-04T09:23:28.555Z,7928
2018-11-04T09:24:29.913Z,8008
2018-11-04T09:25:31.276Z,7728
2018-11-04T09:26:32.652Z,7420
2018-11-04T09:27:34.014Z,7264
2018-11-04T09:28:35.392Z,7436
2018-11-04T09:29:36.749Z,7392
2018-11-04T09:30:38.114Z,7356
2018-11-04T09:31:39.695Z,7272
2018-11-04T09:32:41.058Z,7180
2018-11-04T09:33:42.425Z,7304
2018-11-04T09:34:43.800Z,7380
2018-11-04T09:35:45.362Z,7664
2018-11-04T09:36:46.531Z,7896
2018-11-04T09:37:47.893Z,8096
2018-11-04T09:38:49.284Z,8036
2018-11-04T09:39:50.708Z,8012
2018-11-04T09:40:52.063Z,8148
2018-11-04T09:41:53.423Z,8256
2018-11-04T09:42:54.809Z,8128
2018-11-04T09:43:56.175Z,7948
2018-11-04T09:44:57.549Z,7932
2018-11-04T09:45:58.904Z,8204
2018-11-04T09:47:00.287Z,8164
2018-11-04T09:48:01.645Z,7688
2018-11-04T09:49:03.013Z,7668
2018-11-04T09:50:04.494Z,7300
2018-11-04T09:51:05.743Z,6992
2018-11-04T09:52:07.105Z,6892
2018-11-04T09:53:08.475Z,6056
2018-11-04T09:54:09.840Z,5416
2018-11-04T09:55:11.214Z,5584
2018-11-04T09:56:12.597Z,5956
2018-11-04T09:57:13.964Z,6532
2018-11-04T09:58:15.320Z,7096
2018-11-04T09:59:16.697Z,8060
2018-11-04T10:00:18.075Z,8800
2018-11-04T10:01:19.428Z,8860
2018-11-04T10:02:20.796Z,8440
2018-11-04T10:03:22.146Z,8152
2018-11-04T10:04:23.540Z,7900
2018-11-04T10:05:24.905Z,7552
2018-11-04T10:06:26.274Z,7372
2018-11-04T10:07:27.652Z,7644
2018-11-04T10:08:29.006Z,7960
2018-11-04T10:09:30.381Z,8216
2018-11-04T10:10:31.745Z,8324
2018-11-04T10:11:33.113Z,8384
2018-11-04T10:12:34.499Z,8344
2018-11-04T10:13:35.853Z,8272
2018-11-04T10:14:37.214Z,8488
2018-11-04T10:15:38.582Z,8872
2018-11-04T10:16:39.940Z,8888
2018-11-04T10:17:41.316Z,8736
2018-11-04T10:18:42.685Z,8272
2018-11-04T10:19:44.271Z,8020
2018-11-04T10:20:45.812Z,7568
2018-11-04T10:21:46.785Z,6788
2018-11-04T10:22:48.173Z,6568
2018-11-04T10:23:49.539Z,6604
2018-11-04T10:24:50.914Z,6892
2018-11-04T10:25:52.276Z,7052
2018-11-04T10:26:53.666Z,7516
2018-11-04T10:27:55.888Z,7780
2018-11-04T10:28:57.724Z,7864
2018-11-04T10:29:59.095Z,7824
2018-11-04T10:31:00.456Z,8136
2018-11-04T10:32:01.828Z,9040
2018-11-04T10:33:03.187Z,9924
2018-11-04T10:34:04.550Z,10416
2018-11-04T10:35:05.920Z,10688
2018-11-04T10:36:07.334Z,10624
2018-11-04T10:37:08.699Z,10684
2018-11-04T10:38:10.027Z,10584
2018-11-04T10:39:11.385Z,10404
2018-11-04T10:40:12.752Z,10624
2018-11-04T10:41:14.136Z,11416
2018-11-04T10:42:15.528Z,12168
2018-11-04T10:43:16.840Z,12280
2018-11-04T10:44:18.195Z,12040
2018-11-04T10:45:19.560Z,11840
2018-11-04T10:46:20.922Z,11832
2018-11-04T10:47:22.294Z,11592
2018-11-04T10:48:23.653Z,10768
2018-11-04T10:49:25.092Z,10096
2018-11-04T10:50:26.394Z,10064
2018-11-04T10:51:27.770Z,9760
2018-11-04T10:52:29.123Z,9536
2018-11-04T10:53:30.490Z,9628
2018-11-04T10:54:31.866Z,9648
2018-11-04T10:55:33.228Z,9484
2018-11-04T10:56:34.599Z,10156
2018-11-04T10:57:35.978Z,10548
2018-11-04T10:58:37.343Z,10984
2018-11-04T10:59:38.714Z,11088
2018-11-04T11:00:40.075Z,10712
2018-11-04T11:01:41.445Z,10688
2018-11-04T11:02:42.815Z,10804
2018-11-04T11:03:44.181Z,10620
2018-11-04T11:04:45.591Z,10476
2018-11-04T11:05:46.926Z,9824
2018-11-04T11:06:48.284Z,9692
2018-11-04T11:07:49.656Z,9448
2018-11-04T11:08:51.020Z,8360
2018-11-04T11:09:52.389Z,7928
2018-11-04T11:10:53.755Z,8520
2018-11-04T11:11:55.129Z,9404
2018-11-04T11:12:56.485Z,10016
2018-11-04T11:13:57.846Z,11256
2018-11-04T11:14:59.245Z,12668
2018-11-04T11:16:00.601Z,13924
2018-11-04T11:17:01.984Z,15052
2018-11-04T11:18:03.345Z,15760
2018-11-04T11:19:04.721Z,15496
2018-11-04T11:20:06.087Z,14608
2018-11-04T11:21:07.453Z,13796
2018-11-04T11:22:08.824Z,13644
2018-11-04T11:23:10.203Z,13680
2018-11-04T11:24:11.536Z,13800
2018-11-04T11:25:12.901Z,14568
2018-11-04T11:26:14.278Z,15620
2018-11-04T11:27:15.645Z,16452
2018-11-04T11:28:17.014Z,17380
2018-11-04T11:29:18.368Z,18720
2018-11-04T11:30:19.832Z,19040
2018-11-04T11:31:21.071Z,17492
2018-11-04T11:32:22.440Z,16420
2018-11-04T11:33:23.809Z,15944
2018-11-04T11:34:25.185Z,15748
2018-11-04T11:35:26.546Z,15872
2018-11-04T11:36:27.916Z,16404
2018-11-04T11:37:29.360Z,16824
2018-11-04T11:38:30.630Z,17152
2018-11-04T11:39:32.005Z,17244
2018-11-04T11:40:33.421Z,16816
2018-11-04T11:41:34.736Z,16144
2018-11-04T11:42:36.106Z,15764
2018-11-04T11:43:37.475Z,15572
2018-11-04T11:44:38.884Z,15676
2018-11-04T11:45:40.209Z,16268
2018-11-04T11:46:41.578Z,16552
2018-11-04T11:47:42.952Z,17184
2018-11-04T11:48:44.318Z,18752
2018-11-04T11:49:45.675Z,19712
2018-11-04T11:50:47.051Z,19488
2018-11-04T11:51:48.445Z,19712
2018-11-04T11:52:49.806Z,19392
2018-11-04T11:53:51.195Z,19008
2018-11-04T11:54:52.566Z,18752
2018-11-04T11:55:53.936Z,18336
2018-11-04T11:56:55.294Z,19264
2018-11-04T11:57:56.669Z,19936
2018-11-04T11:58:58.037Z,20032
2018-11-04T11:59:59.418Z,21376
2018-11-04T12:01:00.781Z,23008
2018-11-04T12:02:02.163Z,24384
2018-11-04T12:03:03.520Z,25568
2018-11-04T12:04:04.897Z,24960
2018-11-04T12:05:06.266Z,23968
2018-11-04T12:06:07.634Z,23392
2018-11-04T12:07:08.996Z,23168
2018-11-04T12:08:10.367Z,25856
2018-11-04T12:09:11.736Z,28608
2018-11-04T12:10:13.101Z,31552
2018-11-04T12:11:14.484Z,32704
2018-11-04T12:12:15.854Z,29344
2018-11-04T12:13:17.229Z,25152
2018-11-04T12:14:18.596Z,21632
2018-11-04T12:15:19.962Z,21280
2018-11-04T12:16:21.334Z,22400
2018-11-04T12:17:22.710Z,24000
2018-11-04T12:18:24.084Z,25120
2018-11-04T12:19:25.445Z,26176
2018-11-04T12:20:26.831Z,24704
2018-11-04T12:21:28.192Z,21216
2018-11-04T12:22:29.570Z,14964
2018-11-04T12:23:30.978Z,14992
2018-11-04T12:24:32.296Z,15980
2018-11-04T12:25:33.673Z,17600
2018-11-04T12:26:35.048Z,15180
2018-11-04T12:27:36.410Z,12556
2018-11-04T12:28:37.785Z,11180
2018-11-04T12:29:39.176Z,10692
2018-11-04T12:30:40.560Z,9936
2018-11-04T12:31:41.923Z,9440
2018-11-04T12:32:43.289Z,9620
2018-11-04T12:33:44.654Z,8372
2018-11-04T12:34:46.019Z,7484
2018-11-04T12:35:47.511Z,7456
2018-11-04T12:36:48.899Z,7808
2018-11-04T12:37:50.273Z,8104
2018-11-04T12:38:51.635Z,8300
2018-11-04T12:39:53.005Z,8808
2018-11-04T12:40:54.372Z,8820
2018-11-04T12:41:55.751Z,9072
2018-11-04T12:42:57.121Z,9744
2018-11-04T12:43:58.501Z,10136
2018-11-04T12:44:59.873Z,9772
2018-11-04T12:46:01.255Z,9748
2018-11-04T12:48:50.577Z,10160
2018-11-04T12:49:51.945Z,9836
2018-11-04T12:50:53.329Z,9428
2018-11-04T12:51:54.683Z,9224
2018-11-04T12:52:57.075Z,9372
2018-11-04T12:53:58.440Z,9276
2018-11-04T12:54:59.816Z,9124
2018-11-04T12:56:01.196Z,8752
2018-11-04T12:57:02.559Z,8184
2018-11-04T12:58:03.924Z,8160
2018-11-04T12:59:05.287Z,8564
2018-11-04T13:00:06.664Z,8804
2018-11-04T13:01:08.026Z,8700
2018-11-04T13:02:09.471Z,8768
2018-11-04T13:03:10.740Z,9252
2018-11-04T13:04:12.100Z,9740
2018-11-04T13:05:13.466Z,9668
2018-11-04T13:06:14.837Z,9480
2018-11-04T13:07:16.234Z,9796
2018-11-04T13:08:17.602Z,10208
2018-11-04T13:09:18.964Z,10320
2018-11-04T13:10:20.423Z,10264
2018-11-04T13:11:21.711Z,10292
2018-11-04T13:12:23.077Z,10736
2018-11-04T13:13:24.439Z,11088
2018-11-04T13:14:25.818Z,11336
2018-11-04T13:15:27.187Z,12212
2018-11-04T13:16:28.571Z,12216
2018-11-04T13:17:29.934Z,12100
2018-11-04T13:18:31.295Z,11996
2018-11-04T13:19:32.686Z,12560
2018-11-04T13:20:34.111Z,12744
2018-11-04T13:21:35.474Z,13252
2018-11-04T13:22:36.831Z,13844
2018-11-04T13:23:38.202Z,14684
2018-11-04T13:24:39.571Z,15456
2018-11-04T13:25:40.966Z,14896
2018-11-04T13:26:42.343Z,14308
2018-11-04T13:27:43.723Z,15024
2018-11-04T13:28:45.086Z,14832
2018-11-04T13:29:46.467Z,14884
2018-11-04T13:30:47.840Z,14068
2018-11-04T13:31:49.302Z,14112
2018-11-04T13:32:50.684Z,14568
2018-11-04T13:33:52.062Z,14128
2018-11-04T13:34:53.429Z,14560
2018-11-04T13:35:54.861Z,15120
2018-11-04T13:36:56.145Z,15312
2018-11-04T13:37:57.529Z,14900
2018-11-04T13:38:58.905Z,14180
2018-11-04T13:40:00.310Z,13688
2018-11-04T13:41:01.669Z,13528
2018-11-04T13:42:03.080Z,13252
2018-11-04T13:43:04.498Z,12588
2018-11-04T13:44:05.830Z,12072
2018-11-04T13:45:07.197Z,11480
2018-11-04T13:46:08.566Z,10864
2018-11-04T13:47:09.936Z,10304
2018-11-04T13:48:11.316Z,10164
2018-11-04T13:49:12.748Z,10560
2018-11-04T13:50:14.072Z,10964
2018-11-04T13:51:15.445Z,11008
2018-11-04T13:52:16.811Z,10872
2018-11-04T13:53:18.190Z,10776
2018-11-04T13:54:19.554Z,10584
2018-11-04T13:55:20.941Z,10288
2018-11-04T13:56:22.306Z,9788
2018-11-04T13:57:23.695Z,9452
2018-11-04T13:58:25.072Z,9412
2018-11-04T13:59:26.440Z,9736
2018-11-04T14:00:27.811Z,9772
2018-11-04T14:01:29.165Z,9376
2018-11-04T14:02:30.534Z,9012
2018-11-04T14:03:31.900Z,8876
2018-11-04T14:04:33.272Z,8720
2018-11-04T14:05:34.649Z,8984
2018-11-04T14:06:36.013Z,9796
2018-11-04T14:07:37.408Z,11380
2018-11-04T14:08:38.778Z,9048
2018-11-04T14:09:40.176Z,8592
2018-11-04T14:10:41.553Z,8628
2018-11-04T14:11:42.921Z,8988
2018-11-04T14:12:44.309Z,10220
2018-11-04T14:13:45.623Z,10364